Hua Heng 167 — BIAK3 — position and weather

sailwx.info

Track history (hours):
 
Tides and Currents Weather Stations Pressure Air Temp Water Temp Dewpoint Dewpoint Depression Visibility Wind Speed Wind Dir Waves Ship Positions

Hua Heng 167

Last reported at 2014-Oct-19 03:33 UTC. Time now 2014-Nov-21 11:59 UTC.
Position N 01°16' E 103°59'.
Warning: this ship's position is 33 days out of date.

Length 189 m; draft 7.2 m.

Type: Cargo ship. MMSI: 413376470.

Date/timePositionNaut miles runAvg speedWind from/ knotsBaromVisibWave heightAir tempDewpointWater temp
2014-Oct-19 03:33N 01°16' E 103°59'2 2.2
2014-Oct-19 02:33N 01°17' E 103°57'0 0.0
2014-Oct-19 01:29N 01°17' E 103°57'0 0.0
2014-Oct-19 00:11N 01°17' E 103°57'0 0.0
2014-Oct-18 23:11N 01°17' E 103°57'0 0.0
2014-Oct-18 21:29N 01°17' E 103°57'0 0.1
2014-Oct-18 19:26N 01°17' E 103°57'0 0.0
2014-Oct-18 18:27N 01°17' E 103°57'0 0.0
2014-Oct-18 17:30N 01°17' E 103°57'0 0.1
2014-Oct-18 16:29N 01°17' E 103°57'0 0.0
2014-Oct-18 15:23N 01°17' E 103°57'0 0.0
2014-Oct-18 14:23N 01°17' E 103°57'0 0.0
2014-Oct-18 12:30N 01°17' E 103°57'0 0.0
2014-Oct-18 11:32N 01°17' E 103°57'1 0.9
2014-Oct-18 10:33N 01°17' E 103°56'1 1.5
2014-Oct-18 09:33N 01°16' E 103°57'7 5.2
2014-Oct-18 08:13N 01°16' E 104°04'6 8.2
2014-Oct-18 07:29N 01°17' E 104°10'  
Track history (hours):
 
Tides and Currents Weather Stations Pressure Air Temp Water Temp Dewpoint Dewpoint Depression Visibility Wind Speed Wind Dir Waves Ship Positions

Hua Heng 167

Last reported at 2014-Oct-19 03:33 UTC. Time now 2014-Nov-21 11:59 UTC.
Position N 01°16' E 103°59'.
Warning: this ship's position is 33 days out of date.

Length 189 m; draft 7.2 m.

Type: Cargo ship. MMSI: 413376470.

Date/timePositionNaut miles runAvg speedWind from/ knotsBaromVisibWave heightAir tempDewpointWater temp
2014-Oct-19 03:33N 01°16' E 103°59'2 2.2
2014-Oct-19 02:33N 01°17' E 103°57'0 0.0
2014-Oct-19 01:29N 01°17' E 103°57'0 0.0
2014-Oct-19 00:11N 01°17' E 103°57'0 0.0
2014-Oct-18 23:11N 01°17' E 103°57'0 0.0
2014-Oct-18 21:29N 01°17' E 103°57'0 0.1
2014-Oct-18 19:26N 01°17' E 103°57'0 0.0
2014-Oct-18 18:27N 01°17' E 103°57'0 0.0
2014-Oct-18 17:30N 01°17' E 103°57'0 0.1
2014-Oct-18 16:29N 01°17' E 103°57'0 0.0
2014-Oct-18 15:23N 01°17' E 103°57'0 0.0
2014-Oct-18 14:23N 01°17' E 103°57'0 0.0
2014-Oct-18 12:30N 01°17' E 103°57'0 0.0
2014-Oct-18 11:32N 01°17' E 103°57'1 0.9
2014-Oct-18 10:33N 01°17' E 103°56'1 1.5
2014-Oct-18 09:33N 01°16' E 103°57'7 5.2
2014-Oct-18 08:13N 01°16' E 104°04'6 8.2
2014-Oct-18 07:29N 01°17' E 104°10'  

Dump ship's entire track history